CheckWX is a tool to help pilots better visualize weather data.  It is not intended as a substitute for an official pre-flight weather briefing.

22:27:43 UTC

KRWL METAR
Rawlins Municipal / Harvey Field Airport
Rawlins, Wyoming, USA
Current

35 mins ago

KRWL 222153Z AUTO 26016G29KT 10SM CLR M01/M07 A2996 RMK AO2 PK WND 26030/2114 SLP162 T10111072
Observed
Jan-22 @ 21:53 UTC
Wind
  • 260° at 16 KTS
  • Gusting to 29 KTS
Visibility
10 SM
Flight Rules
VFR
Cloud Levels
  • Clear skies
Temperature
-1°C / 30°F
Dewpoint
-7°C / 19°F
Humidity
64%
Altimeter
29.96" Hg
Pressure
1014.52 hPa
Previous

2 hours ago

KRWL 222053Z AUTO 25018G26KT 10SM CLR M01/M06 A2996 RMK AO2 PK WND 26031/2014 SLP160 60000 T10061061 55002
Observed
Jan-22 @ 20:53 UTC
Wind
  • 250° at 18 KTS
  • Gusting to 26 KTS
Visibility
10 SM
Flight Rules
VFR
Cloud Levels
  • Clear skies
Temperature
-1°C / 30°F
Dewpoint
-6°C / 21°F
Humidity
69%
Altimeter
29.96" Hg
Pressure
1014.52 hPa
Previous

3 hours ago

KRWL 221953Z AUTO 25019G27KT 10SM SCT015 00/M03 A2995 RMK AO2 PK WND 25029/1857 SLP154 T00001033
Observed
Jan-22 @ 19:53 UTC
Wind
  • 250° at 19 KTS
  • Gusting to 27 KTS
Visibility
10 SM
Flight Rules
VFR
Cloud Levels
  • Scattered at 1,500' AGL
Temperature
C / 32°F
Dewpoint
-3°C / 27°F
Humidity
80%
Altimeter
29.95" Hg
Pressure
1014.22 hPa